Kellys Korner, Washington
Current Conditions -  °F | °C
As of 3:54 PM on Sunday 25 Jan 2015 (Local Time) from KOLM Reporting Station
Clear Clear  
Wind Chill: 56°   Ceiling: Unl
Heat Index: 56°   Visibility: 10mi
Dew Point: 49°   Wind: 0mph
Humidity: 77%   Direction: NA
Pressure: 30.07"   Gusts: NA
Location:  46.9679°N, 122.834°W
Report Text: KOLM 252354Z 00000KT 10SM CLR 13/09 A3007 RMK AO2 SLP182 T01330094 10133 20100 56017
Loading
Personal Weather Stations






























Interactive Weather Map New forecast layout! Learn more

10-Day Weather Forecast

Advertisements
Track Severe Weather on mobile